Stations météo

réclame
Mon MeteoGroup
Itsaso, Espagne (8037): Température de l'air & dewpoint: 11.12.2017 07:00:00 - 17.12.2017 07:00:00 (CET)Itsaso, Espagne (8037): Vitesse du vent & gusts: 11.12.2017 07:00:00 - 17.12.2017 07:00:00 (CET)Itsaso, Espagne (8037): Direction du vent: 11.12.2017 07:00:00 - 17.12.2017 07:00:00 (CET)Itsaso, Espagne (8037): reduced air pressure: 11.12.2017 07:00:00 - 17.12.2017 07:00:00 (CET)Itsaso, Espagne (8037): Quantités de précipitations: 11.12.2017 07:00:00 - 17.12.2017 07:00:00 (CET)
Date & Time tt [°C] td [°C] ff [km/h] ff [knt] fx [km/h] fx [knt] dd ppp [hPa] rr [mm]
17.12.2017 07:00:00 - - - - - - - - -
17.12.2017 06:00:00 2,2 2,1 1 1 24 13 W 1029,8 0,7
17.12.2017 05:00:00 2,2 2,1 6 3 15 8 WSW 1029,7 0,9
17.12.2017 04:00:00 2,2 2,1 1 1 20 11 SW 1029,7 1,0
17.12.2017 03:00:00 2,1 1,9 0 0 8 5 ESE 1029,5 1,3
17.12.2017 02:00:00 1,9 1,7 3 1 13 7 W 1029,1 0,0
17.12.2017 01:00:00 2,2 2,1 4 2 25 13 WSW 1029,2 -
17.12.2017 00:00:00 2,3 2,1 1 0 14 8 W 1029,3 0,0
16.12.2017 23:00:00 2,4 2,3 15 8 33 18 W 1028,5 0,9
16.12.2017 22:00:00 2,6 2,5 8 4 24 13 W 1028,1 0,4
16.12.2017 21:00:00 2,3 2,1 2 1 16 9 W 1027,9 0,2
16.12.2017 20:00:00 2,5 2,3 4 2 26 14 W 1027,2 0,9
16.12.2017 19:00:00 2,6 2,5 0 0 18 10 NW 1026,2 -
16.12.2017 18:00:00 2,9 2,7 11 6 30 16 W 1025,4 0,6
16.12.2017 17:00:00 3,5 2,7 3 1 28 15 WNW 1024,4 0,0
16.12.2017 16:00:00 3,3 2,9 19 10 39 21 W 1023,6 1,5
16.12.2017 15:00:00 3,4 3,2 11 6 23 13 W 1023,1 0,7
16.12.2017 14:00:00 3,6 3,4 9 5 26 14 W 1022,8 0,3
16.12.2017 13:00:00 3,8 3,6 1 1 7 4 WNW 1022,7 -
16.12.2017 12:00:00 2,8 2,7 3 2 10 5 NNW 1023,1 3,6
16.12.2017 11:00:00 2,9 2,7 3 2 14 8 W 1022,2 3,2
16.12.2017 10:00:00 3,1 3,0 11 6 31 17 W 1021,0 1,9
16.12.2017 09:00:00 3,0 2,7 6 3 22 12 WNW 1020,1 2,7
16.12.2017 08:00:00 2,5 2,3 8 4 19 11 W 1019,2 0,2
16.12.2017 07:00:00 2,8 2,7 15 8 36 19 W 1018,5 -
16.12.2017 06:00:00 3,2 3,0 21 11 34 18 W 1017,8 1,2
16.12.2017 05:00:00 3,6 2,7 16 9 38 21 W 1017,2 1,1
16.12.2017 04:00:00 3,2 3,0 15 8 24 13 W 1017,1 0,4
16.12.2017 03:00:00 2,9 2,7 13 7 24 13 W 1016,6 0,1
16.12.2017 02:00:00 2,9 2,7 11 6 18 10 W 1016,3 0,5
16.12.2017 01:00:00 2,9 2,7 9 5 23 13 W 1016,4 -
16.12.2017 00:00:00 3,3 3,2 10 6 20 11 W 1015,9 0,3
15.12.2017 23:00:00 3,1 3,0 12 7 24 13 W 1015,4 0,6
15.12.2017 22:00:00 3,4 3,2 9 5 34 18 W 1014,8 0,0
15.12.2017 21:00:00 3,5 3,4 19 11 32 18 W 1014,5 0,7
15.12.2017 20:00:00 3,5 3,4 14 8 29 15 W 1014,0 0,2
15.12.2017 19:00:00 3,2 3,0 10 5 30 16 W 1013,3 -
15.12.2017 18:00:00 3,6 3,4 6 3 29 16 WNW 1012,8 2,7
15.12.2017 17:00:00 4,0 3,8 19 10 34 18 W 1012,2 1,1
15.12.2017 16:00:00 4,0 3,8 18 10 31 17 W 1011,2 2,6
15.12.2017 15:00:00 4,1 3,9 14 8 29 16 WNW 1011,3 3,2
15.12.2017 14:00:00 5,6 4,1 13 7 27 15 W 1010,8 0,1
15.12.2017 13:00:00 4,8 3,9 8 4 19 10 W 1011,7 -
15.12.2017 12:00:00 4,2 3,8 4 2 19 10 W 1012,1 1,1
15.12.2017 11:00:00 3,8 3,6 3 2 11 6 NW 1012,4 0,2
15.12.2017 10:00:00 3,2 3,0 3 1 13 7 W 1012,2 0,5
15.12.2017 09:00:00 3,4 2,7 10 5 34 18 WNW 1011,5 0,3
15.12.2017 08:00:00 3,4 2,5 19 10 35 19 W 1010,7 0,7
15.12.2017 07:00:00 3,7 3,0 16 9 36 19 WNW 1011,4 -
15.12.2017 06:00:00 4,5 2,7 29 15 48 26 WNW 1010,6 3,1
15.12.2017 05:00:00 7,7 -0,3 16 9 29 15 WNW 1008,8 0,0
15.12.2017 04:00:00 7,0 0,0 15 8 24 13 W 1009,2 0,0
15.12.2017 03:00:00 5,6 2,1 7 4 22 12 W 1009,9 0,0
15.12.2017 02:00:00 6,9 1,9 11 6 25 13 W 1010,3 0,0
15.12.2017 01:00:00 7,5 3,2 12 7 30 16 W 1010,9 -
15.12.2017 00:00:00 7,8 5,3 10 5 24 13 W 1011,5 0,0
14.12.2017 23:00:00 7,7 5,8 14 8 33 18 W 1011,7 0,0
14.12.2017 22:00:00 7,7 6,8 22 12 45 24 W 1011,9 0,6
14.12.2017 21:00:00 8,5 8,4 11 6 22 12 W 1011,7 0,3
14.12.2017 20:00:00 9,0 8,5 8 4 19 11 W 1011,6 0,0
14.12.2017 19:00:00 9,4 8,9 8 4 14 8 W 1011,3 -
14.12.2017 18:00:00 8,9 8,4 3 1 9 5 WSW 1011,7 0,0
14.12.2017 17:00:00 9,9 8,1 4 2 11 6 W 1012,0 0,0
14.12.2017 16:00:00 10,7 8,0 8 4 18 10 W 1012,5 0,0
14.12.2017 15:00:00 11,3 7,3 9 5 18 10 W 1012,7 0,0
14.12.2017 14:00:00 11,2 8,8 3 2 10 6 WNW 1013,3 0,0
14.12.2017 13:00:00 11,2 8,8 1 1 12 7 ESE 1014,2 -
14.12.2017 12:00:00 9,2 9,0 1 1 8 4 ESE 1015,4 0,0
14.12.2017 11:00:00 8,0 7,8 3 2 6 3 ESE 1016,7 0,0
14.12.2017 10:00:00 7,5 7,4 2 1 7 4 SE 1017,2 0,2
14.12.2017 09:00:00 7,5 7,4 4 2 18 10 ESE 1017,3 1,5
14.12.2017 08:00:00 7,8 7,7 2 1 9 5 WSW 1017,6 2,5
14.12.2017 07:00:00 7,7 7,6 1 1 14 7 W 1017,4 -
14.12.2017 06:00:00 8,0 7,8 10 5 23 12 W 1017,3 1,0
14.12.2017 05:00:00 7,9 7,7 7 4 18 10 W 1017,9 2,6
14.12.2017 04:00:00 8,1 8,0 8 4 19 10 W 1018,1 0,6
14.12.2017 03:00:00 8,7 7,6 6 4 10 6 W 1017,6 0,0
14.12.2017 02:00:00 8,8 7,1 6 4 22 12 W 1017,9 0,0
14.12.2017 01:00:00 8,8 7,0 6 3 16 9 WNW 1018,2 -
14.12.2017 00:00:00 8,8 7,0 3 2 17 9 WNW 1018,2 0,1
13.12.2017 23:00:00 8,9 5,9 7 4 23 12 WNW 1018,5 0,0
13.12.2017 22:00:00 9,6 5,5 9 5 26 14 WNW 1018,3 0,0
13.12.2017 21:00:00 9,1 5,1 1 0 25 13 W 1018,5 0,0
13.12.2017 20:00:00 8,9 4,3 5 3 12 7 WNW 1018,6 0,0
13.12.2017 19:00:00 8,3 3,4 0 0 10 5 NNE 1018,1 -
13.12.2017 18:00:00 8,1 3,0 1 0 16 9 WSW 1018,3 0,0
13.12.2017 17:00:00 8,6 2,1 4 2 27 14 SSW 1018,1 0,0
13.12.2017 16:00:00 9,1 2,5 3 1 19 10 SSW 1017,9 0,0
13.12.2017 15:00:00 8,7 2,5 1 1 13 7 NE 1018,4 0,0
13.12.2017 14:00:00 8,2 2,5 1 1 13 7 WNW 1019,1 0,0
13.12.2017 13:00:00 7,6 2,5 0 0 11 6 NNE 1019,8 -
13.12.2017 12:00:00 7,2 2,1 3 2 14 8 SSE 1020,9 0,0
13.12.2017 11:00:00 6,4 1,9 2 1 14 7 E 1022,2 0,0
13.12.2017 10:00:00 5,0 3,4 0 0 11 6 WSW 1022,2 0,0
13.12.2017 09:00:00 4,4 3,2 1 1 8 4 SE 1021,9 0,1
13.12.2017 08:00:00 4,5 2,3 1 0 6 4 WSW 1022,2 0,0
13.12.2017 07:00:00 4,8 0,6 1 1 6 3 W 1021,3 -
13.12.2017 06:00:00 3,3 0,4 2 1 11 6 WSW 1021,0 0,0
13.12.2017 05:00:00 4,1 -0,7 3 1 9 5 SE 1021,0 0,0
13.12.2017 04:00:00 0,8 0,2 0 0 15 8 SW 1022,1 0,0
13.12.2017 03:00:00 1,2 0,9 0 0 5 3 WSW 1021,8 0,0
13.12.2017 02:00:00 1,0 0,6 1 1 8 4 SW 1022,3 0,0
13.12.2017 01:00:00 1,4 1,1 1 1 7 4 SW 1022,6 -
13.12.2017 00:00:00 2,0 1,5 0 0 6 3 ESE 1022,7 0,0
12.12.2017 23:00:00 2,6 2,1 0 0 4 2 W 1022,1 0,0
12.12.2017 22:00:00 2,6 1,9 0 0 4 2 S 1021,5 0,0
12.12.2017 21:00:00 2,8 1,9 0 0 3 1 ESE 1020,7 0,0
12.12.2017 20:00:00 3,0 1,7 0 0 4 2 WSW 1021,0 0,0
12.12.2017 19:00:00 3,4 2,1 1 0 10 5 SW 1020,4 -
12.12.2017 18:00:00 4,3 1,9 7 4 17 9 W 1019,6 0,0
12.12.2017 17:00:00 4,9 1,5 7 4 16 9 W 1018,9 0,0
12.12.2017 16:00:00 5,1 1,5 3 1 13 7 W 1018,0 0,0
12.12.2017 15:00:00 5,4 1,1 5 3 18 10 WNW 1017,7 0,0
12.12.2017 14:00:00 5,2 1,1 8 5 19 10 WNW 1017,3 0,0
12.12.2017 13:00:00 4,7 2,3 9 5 15 8 WNW 1017,1 -
12.12.2017 12:00:00 3,6 3,4 2 1 11 6 W 1017,4 0,5
12.12.2017 11:00:00 1,8 1,7 6 3 10 6 W 1017,7 1,4
12.12.2017 10:00:00 0,7 0,6 1 1 13 7 WSW 1016,6 0,7
12.12.2017 09:00:00 0,2 0,0 2 1 16 9 W 1016,2 0,0
12.12.2017 08:00:00 -1,2 -1,4 1 1 8 4 WSW 1015,3 0,0
12.12.2017 07:00:00 -1,1 -1,2 3 2 11 6 ESE 1013,9 -
12.12.2017 06:00:00 -0,5 -0,7 5 3 15 8 WSW 1012,4 0,2
12.12.2017 05:00:00 0,0 0,0 5 3 10 5 W 1011,6 0,6
12.12.2017 04:00:00 0,3 0,2 5 3 14 8 W 1010,4 1,1
12.12.2017 03:00:00 -0,6 -0,7 0 0 3 2 W 1009,9 0,4
12.12.2017 02:00:00 -0,3 -0,5 0 0 21 12 SW 1008,8 2,4
12.12.2017 01:00:00 0,8 0,6 16 9 34 18 W 1008,2 -
12.12.2017 00:00:00 1,5 1,3 11 6 31 17 W 1006,7 1,8
11.12.2017 23:00:00 1,8 1,3 18 10 39 21 W 1005,3 1,9
11.12.2017 22:00:00 2,3 1,9 6 3 29 16 W 1004,2 0,8
11.12.2017 21:00:00 2,4 1,9 22 12 37 20 W 1003,1 1,0
11.12.2017 20:00:00 2,9 2,1 12 7 25 13 W 1001,1 0,1
11.12.2017 19:00:00 2,2 1,7 17 9 48 26 W 999,6 -
11.12.2017 18:00:00 3,5 2,1 21 12 63 34 W 997,4 0,3
11.12.2017 17:00:00 4,2 2,5 19 11 41 22 W 995,9 0,3
11.12.2017 16:00:00 4,7 2,3 24 13 44 24 W 994,2 0,6
11.12.2017 15:00:00 6,7 2,5 13 7 41 22 WNW 992,1 0,4
11.12.2017 14:00:00 7,9 1,1 10 6 25 14 WNW 990,8 0,0
11.12.2017 13:00:00 8,3 2,3 3 2 17 9 SW 990,7 -
11.12.2017 12:00:00 6,4 4,5 5 3 13 7 ESE 990,8 0,0
11.12.2017 11:00:00 4,9 4,8 0 0 6 3 WNW 990,6 0,0
11.12.2017 10:00:00 3,3 3,2 2 1 7 4 SE 989,8 0,0
11.12.2017 09:00:00 - - - - - - - - -
11.12.2017 08:00:00 3,9 3,2 4 2 23 12 W 988,5 0,0
11.12.2017 07:00:00 3,8 3,4 8 4 58 32 WNW 987,2 -

tt = Température de l'air
td = dewpoint
ff = Vitesse du vent
fx = gusts
dd = Direction du vent
ppp = reduced air pressure
rr = Quantités de précipitations

stations d'obs. à proximité